createdAt,value
2022-08-31T00:00:12.283Z,23.37
2022-08-31T00:02:58.489Z,23.39
2022-08-31T00:05:25.898Z,23.40
2022-08-31T00:07:53.113Z,23.37
2022-08-31T00:10:32.546Z,23.19
2022-08-31T00:13:07.016Z,23.20
2022-08-31T00:15:35.799Z,23.17
2022-08-31T00:18:04.210Z,23.18
2022-08-31T00:20:34.187Z,23.18
2022-08-31T00:23:04.691Z,23.22
2022-08-31T00:25:33.892Z,23.13
2022-08-31T00:28:01.187Z,23.11
2022-08-31T00:30:30.232Z,23.02
2022-08-31T00:32:58.542Z,22.92
2022-08-31T00:35:27.760Z,22.86
2022-08-31T00:37:55.717Z,22.82
2022-08-31T00:40:23.600Z,22.80
2022-08-31T00:42:51.050Z,22.84
2022-08-31T00:45:18.593Z,22.77
2022-08-31T00:47:45.779Z,22.71
2022-08-31T00:50:16.261Z,22.69
2022-08-31T00:52:48.478Z,22.66
2022-08-31T00:55:27.966Z,22.67
2022-08-31T00:57:59.973Z,22.57
2022-08-31T01:00:29.122Z,22.58
2022-08-31T01:02:59.674Z,22.55
2022-08-31T01:05:26.882Z,22.52
2022-08-31T01:07:54.214Z,22.48
2022-08-31T01:10:24.576Z,22.57
2022-08-31T01:12:54.985Z,22.64
2022-08-31T01:15:25.080Z,22.82
2022-08-31T01:17:55.325Z,22.92
2022-08-31T01:20:48.713Z,22.97
2022-08-31T01:23:23.250Z,22.97
2022-08-31T01:25:52.662Z,22.92
2022-08-31T01:28:20.069Z,22.95
2022-08-31T01:31:00.083Z,22.87
2022-08-31T01:33:28.046Z,22.80
2022-08-31T01:35:55.755Z,22.68
2022-08-31T01:38:23.333Z,22.65
2022-08-31T01:40:56.538Z,22.69
2022-08-31T01:43:24.560Z,22.59
2022-08-31T01:45:52.058Z,22.35
2022-08-31T01:48:22.181Z,22.36
2022-08-31T01:50:49.699Z,22.27
2022-08-31T01:53:17.969Z,22.28
2022-08-31T01:55:46.532Z,22.34
2022-08-31T01:58:14.729Z,22.32
2022-08-31T02:01:00.886Z,22.18
2022-08-31T02:03:28.158Z,22.17
2022-08-31T02:08:22.021Z,22.22
2022-08-31T02:10:50.907Z,22.17
2022-08-31T02:13:18.508Z,22.10
2022-08-31T02:15:45.944Z,21.99
2022-08-31T02:18:15.192Z,21.84
2022-08-31T02:20:42.561Z,21.86
2022-08-31T02:23:10.475Z,21.83
2022-08-31T02:25:37.883Z,21.72
2022-08-31T02:28:05.306Z,21.64
2022-08-31T02:30:32.660Z,21.62
2022-08-31T02:32:59.693Z,21.52
2022-08-31T02:35:27.345Z,21.48
2022-08-31T02:37:54.914Z,21.44
2022-08-31T02:40:22.618Z,21.38
2022-08-31T02:42:53.862Z,21.40
2022-08-31T02:45:27.325Z,21.30
2022-08-31T02:48:01.318Z,21.21
2022-08-31T02:50:43.546Z,21.12
2022-08-31T02:53:13.404Z,21.15
2022-08-31T02:55:43.086Z,21.25
2022-08-31T02:58:12.224Z,21.20
2022-08-31T03:00:44.181Z,21.26
2022-08-31T03:03:11.517Z,21.20
2022-08-31T03:05:39.215Z,21.22
2022-08-31T03:08:07.960Z,21.21
2022-08-31T03:10:35.821Z,21.18
2022-08-31T03:13:02.879Z,21.18
2022-08-31T03:15:30.405Z,21.16
2022-08-31T03:18:06.773Z,21.15
2022-08-31T03:20:34.955Z,21.09
2022-08-31T03:23:03.529Z,21.07
2022-08-31T03:25:32.298Z,21.02
2022-08-31T03:28:00.304Z,21.03
2022-08-31T03:30:32.031Z,21.14
2022-08-31T03:33:07.069Z,21.03
2022-08-31T03:35:35.889Z,20.88
2022-08-31T03:38:03.446Z,20.82
2022-08-31T03:40:30.809Z,20.78
2022-08-31T03:42:58.998Z,20.78
2022-08-31T03:45:28.020Z,20.73
2022-08-31T03:47:55.615Z,20.75
2022-08-31T03:50:24.808Z,20.73
2022-08-31T03:53:04.365Z,20.74
2022-08-31T03:55:33.067Z,20.75
2022-08-31T03:58:00.782Z,20.84
2022-08-31T04:00:28.821Z,20.89
2022-08-31T04:03:02.618Z,20.94
2022-08-31T04:05:35.333Z,20.90
2022-08-31T04:08:08.210Z,20.93
2022-08-31T04:10:54.252Z,20.94
2022-08-31T04:13:27.986Z,21.03
2022-08-31T04:16:19.729Z,21.02
2022-08-31T04:19:24.993Z,21.07
2022-08-31T04:21:59.549Z,21.12
2022-08-31T04:24:29.622Z,21.15
2022-08-31T04:26:56.740Z,21.21
2022-08-31T04:29:24.224Z,21.27
2022-08-31T04:31:51.413Z,21.26
2022-08-31T04:34:18.602Z,21.35
2022-08-31T04:36:45.986Z,21.37
2022-08-31T04:39:14.672Z,21.33
2022-08-31T04:41:44.886Z,21.39
2022-08-31T04:44:17.711Z,21.43
2022-08-31T04:46:49.298Z,21.50
2022-08-31T04:49:16.412Z,21.56
2022-08-31T04:51:44.640Z,21.60
2022-08-31T04:54:14.003Z,21.63
2022-08-31T04:56:45.451Z,21.72
2022-08-31T04:59:26.154Z,21.77
2022-08-31T05:02:16.922Z,21.87
2022-08-31T05:04:50.049Z,21.98
2022-08-31T05:07:17.194Z,22.10
2022-08-31T05:09:44.802Z,22.13
2022-08-31T05:12:12.219Z,22.20
2022-08-31T05:14:39.478Z,22.14
2022-08-31T05:17:17.847Z,22.20
2022-08-31T05:19:45.371Z,22.28
2022-08-31T05:22:15.010Z,22.29
2022-08-31T05:24:44.289Z,22.42
2022-08-31T05:27:13.095Z,22.46
2022-08-31T05:29:41.347Z,22.64
2022-08-31T05:32:31.369Z,22.61
2022-08-31T05:35:00.537Z,22.71
2022-08-31T05:37:27.855Z,22.75
2022-08-31T05:39:55.293Z,22.85
2022-08-31T05:42:22.466Z,23.00
2022-08-31T05:44:50.119Z,23.05
2022-08-31T05:47:17.592Z,23.03
2022-08-31T05:49:45.176Z,23.10
2022-08-31T05:52:17.210Z,23.17
2022-08-31T05:54:44.565Z,23.28
2022-08-31T05:57:11.907Z,23.37
2022-08-31T05:59:40.236Z,23.47
2022-08-31T06:02:11.066Z,23.50
2022-08-31T06:04:39.262Z,23.56
2022-08-31T06:07:06.530Z,23.66
2022-08-31T06:09:51.270Z,23.75
2022-08-31T06:12:20.117Z,23.88
2022-08-31T06:14:51.259Z,24.07
2022-08-31T06:17:20.952Z,24.28
2022-08-31T06:19:48.168Z,24.38
2022-08-31T06:22:15.610Z,24.50
2022-08-31T06:24:43.139Z,24.56
2022-08-31T06:27:10.467Z,24.54
2022-08-31T06:29:37.977Z,24.62
2022-08-31T06:32:08.344Z,24.73
2022-08-31T06:34:40.057Z,24.77
2022-08-31T06:37:18.269Z,24.83
2022-08-31T06:40:15.582Z,24.84
2022-08-31T06:42:57.368Z,24.88
2022-08-31T06:45:47.408Z,25.02
2022-08-31T06:48:33.280Z,25.03
2022-08-31T06:51:01.087Z,25.19
2022-08-31T06:53:29.798Z,25.19
2022-08-31T06:56:21.392Z,25.20
2022-08-31T06:59:08.306Z,25.26
2022-08-31T07:01:56.016Z,25.39
2022-08-31T07:04:35.158Z,25.57
2022-08-31T07:07:04.667Z,25.67
2022-08-31T07:09:32.307Z,25.74
2022-08-31T07:11:59.485Z,25.90
2022-08-31T07:14:27.808Z,25.89
2022-08-31T07:16:58.665Z,26.11
2022-08-31T07:19:27.343Z,26.17
2022-08-31T07:21:58.686Z,26.28
2022-08-31T07:24:30.622Z,26.32
2022-08-31T07:27:02.386Z,26.33
2022-08-31T07:29:43.026Z,26.43
2022-08-31T07:32:14.787Z,26.46
2022-08-31T07:34:44.570Z,26.42
2022-08-31T07:37:42.093Z,26.42
2022-08-31T07:40:29.315Z,26.48
2022-08-31T07:42:56.975Z,26.43
2022-08-31T07:45:25.740Z,26.58
2022-08-31T07:47:57.918Z,26.76
2022-08-31T07:50:28.055Z,26.70
2022-08-31T07:53:18.526Z,26.76
2022-08-31T07:55:56.794Z,26.96
2022-08-31T07:58:31.357Z,27.19
2022-08-31T08:01:03.003Z,27.22
2022-08-31T08:03:30.371Z,27.19
2022-08-31T08:06:34.170Z,27.25
2022-08-31T08:09:24.371Z,27.41
2022-08-31T08:12:01.195Z,27.22
2022-08-31T08:14:54.793Z,27.40
2022-08-31T08:17:31.622Z,27.58
2022-08-31T08:20:13.554Z,27.73
2022-08-31T08:22:54.147Z,27.85
2022-08-31T08:25:35.027Z,27.69
2022-08-31T08:28:38.575Z,27.68
2022-08-31T08:31:12.834Z,27.88
2022-08-31T08:33:40.182Z,28.01
2022-08-31T08:36:08.397Z,28.10
2022-08-31T08:38:39.773Z,28.19
2022-08-31T08:41:13.856Z,28.31
2022-08-31T08:43:52.218Z,28.39
2022-08-31T08:46:36.879Z,28.43
2022-08-31T08:49:19.436Z,28.37
2022-08-31T08:51:54.363Z,28.40
2022-08-31T08:54:38.093Z,28.52
2022-08-31T08:57:18.167Z,28.57
2022-08-31T08:59:49.614Z,28.68
2022-08-31T09:02:55.976Z,28.77
2022-08-31T09:05:56.751Z,28.84
2022-08-31T09:08:51.159Z,28.96
2022-08-31T09:11:27.421Z,28.99
2022-08-31T09:14:19.752Z,29.08
2022-08-31T09:17:25.890Z,29.20
2022-08-31T09:20:00.278Z,29.29
2022-08-31T09:22:47.155Z,29.12
2022-08-31T09:25:32.850Z,29.15
2022-08-31T09:28:17.238Z,29.04
2022-08-31T09:30:44.698Z,29.29
2022-08-31T09:33:25.885Z,29.28
2022-08-31T09:35:58.303Z,29.22
2022-08-31T09:38:40.515Z,29.34
2022-08-31T09:41:22.814Z,29.40
2022-08-31T09:43:50.837Z,29.45
2022-08-31T09:46:31.666Z,29.31
2022-08-31T09:49:03.263Z,29.67
2022-08-31T09:51:36.331Z,29.78
2022-08-31T09:54:34.290Z,29.95
2022-08-31T09:57:05.548Z,30.10
2022-08-31T09:59:40.144Z,30.16
2022-08-31T10:02:13.016Z,30.15
2022-08-31T10:04:55.639Z,30.15
2022-08-31T10:07:52.025Z,30.17
2022-08-31T10:10:43.216Z,30.04
2022-08-31T10:13:27.227Z,29.98
2022-08-31T10:16:07.289Z,30.02
2022-08-31T10:19:02.871Z,30.17
2022-08-31T10:21:52.404Z,30.18
2022-08-31T10:24:47.504Z,30.23
2022-08-31T10:27:38.550Z,30.40
2022-08-31T10:30:23.350Z,30.49
2022-08-31T10:33:00.607Z,30.44
2022-08-31T10:35:55.926Z,30.59
2022-08-31T10:38:35.388Z,30.55
2022-08-31T10:41:10.141Z,30.76
2022-08-31T10:44:26.542Z,30.73
2022-08-31T10:47:02.907Z,30.86
2022-08-31T10:49:30.379Z,31.14
2022-08-31T10:52:21.003Z,31.34
2022-08-31T10:55:13.150Z,31.38
2022-08-31T10:57:49.905Z,31.31
2022-08-31T11:00:41.950Z,31.34
2022-08-31T11:03:09.143Z,31.26
2022-08-31T11:05:55.100Z,30.79
2022-08-31T11:08:37.313Z,30.79
2022-08-31T11:11:10.120Z,30.90
2022-08-31T11:13:49.725Z,30.96
2022-08-31T11:16:32.818Z,31.02
2022-08-31T11:19:20.360Z,31.07
2022-08-31T11:22:14.215Z,31.04
2022-08-31T11:25:03.511Z,30.88
2022-08-31T11:27:41.014Z,30.86
2022-08-31T11:30:11.188Z,30.76
2022-08-31T11:32:50.682Z,31.02
2022-08-31T11:35:49.630Z,31.20
2022-08-31T11:38:48.522Z,31.17
2022-08-31T11:41:46.851Z,31.11
2022-08-31T11:44:33.057Z,31.17
2022-08-31T11:47:12.992Z,31.31
2022-08-31T11:49:50.324Z,31.38
2022-08-31T11:52:29.990Z,31.22
2022-08-31T11:55:03.027Z,31.15
2022-08-31T11:57:37.460Z,31.22
2022-08-31T12:00:19.991Z,31.37
2022-08-31T12:03:04.711Z,31.62
2022-08-31T12:05:56.395Z,31.54
2022-08-31T12:08:28.459Z,31.55
2022-08-31T12:11:10.215Z,31.32
2022-08-31T12:13:45.942Z,31.52
2022-08-31T12:16:30.131Z,31.60
2022-08-31T12:19:03.621Z,31.76
2022-08-31T12:21:56.283Z,31.64
2022-08-31T12:24:23.322Z,31.68
2022-08-31T12:27:09.201Z,31.80
2022-08-31T12:29:40.282Z,31.66
2022-08-31T12:32:19.346Z,31.55
2022-08-31T12:35:17.678Z,31.72
2022-08-31T12:37:45.097Z,31.86
2022-08-31T12:40:16.059Z,31.89
2022-08-31T12:43:01.035Z,31.70
2022-08-31T12:45:43.693Z,31.69
2022-08-31T12:48:37.210Z,31.64
2022-08-31T12:51:13.097Z,31.68
2022-08-31T12:53:52.569Z,31.76
2022-08-31T12:56:22.658Z,31.93
2022-08-31T12:58:52.595Z,32.03
2022-08-31T13:01:24.156Z,31.90
2022-08-31T13:03:56.696Z,31.81
2022-08-31T13:06:33.526Z,31.55
2022-08-31T13:09:02.190Z,31.27
2022-08-31T13:11:41.129Z,31.00
2022-08-31T13:14:23.326Z,30.81
2022-08-31T13:16:55.642Z,30.82
2022-08-31T13:19:25.832Z,30.95
2022-08-31T13:21:58.328Z,31.03
2022-08-31T13:24:32.020Z,31.41
2022-08-31T13:27:20.228Z,31.59
2022-08-31T13:29:49.367Z,31.84
2022-08-31T13:32:32.324Z,31.83
2022-08-31T13:35:04.555Z,31.96
2022-08-31T13:37:37.895Z,31.98
2022-08-31T13:40:10.130Z,32.02
2022-08-31T13:42:43.018Z,32.11
2022-08-31T13:45:39.458Z,32.02
2022-08-31T13:48:13.525Z,32.09
2022-08-31T13:50:53.793Z,32.12
2022-08-31T13:53:40.229Z,32.29
2022-08-31T13:56:47.646Z,32.33
2022-08-31T13:59:24.041Z,32.36
2022-08-31T14:01:53.400Z,32.30
2022-08-31T14:04:46.557Z,32.07
2022-08-31T14:07:20.539Z,31.99
2022-08-31T14:10:19.836Z,32.15
2022-08-31T14:12:51.949Z,32.19
2022-08-31T14:15:21.663Z,32.23
2022-08-31T14:21:27.180Z,32.04
2022-08-31T14:24:05.904Z,32.10
2022-08-31T14:26:37.168Z,32.13
2022-08-31T14:29:12.496Z,32.10
2022-08-31T14:31:55.150Z,31.98
2022-08-31T14:34:25.400Z,31.85
2022-08-31T14:37:10.631Z,31.75
2022-08-31T14:39:41.940Z,31.56
2022-08-31T14:42:35.011Z,31.44
2022-08-31T14:45:21.229Z,31.38
2022-08-31T14:47:52.518Z,31.31
2022-08-31T14:50:25.055Z,31.19
2022-08-31T14:52:53.121Z,31.09
2022-08-31T14:55:22.385Z,30.98
2022-08-31T14:57:58.094Z,30.90
2022-08-31T15:00:26.034Z,31.10
2022-08-31T15:02:53.868Z,31.18
2022-08-31T15:05:23.993Z,31.23
2022-08-31T15:07:55.146Z,31.31
2022-08-31T15:10:25.768Z,31.35
2022-08-31T15:12:54.284Z,31.21
2022-08-31T15:15:21.763Z,31.23
2022-08-31T15:17:51.749Z,31.13
2022-08-31T15:20:23.100Z,31.01
2022-08-31T15:22:50.275Z,30.79
2022-08-31T15:25:20.826Z,30.63
2022-08-31T15:27:49.458Z,30.53
2022-08-31T15:30:19.745Z,30.40
2022-08-31T15:32:48.319Z,30.27
2022-08-31T15:35:23.436Z,30.18
2022-08-31T15:37:56.619Z,30.07
2022-08-31T15:40:25.290Z,30.05
2022-08-31T15:42:56.610Z,29.92
2022-08-31T15:45:25.880Z,29.88
2022-08-31T15:48:11.838Z,29.87
2022-08-31T15:50:49.564Z,29.72
2022-08-31T15:53:17.233Z,29.64
2022-08-31T15:55:44.877Z,29.62
2022-08-31T15:58:12.723Z,29.58
2022-08-31T16:00:41.962Z,29.51
2022-08-31T16:03:10.191Z,29.53
2022-08-31T16:05:39.390Z,29.46
2022-08-31T16:08:10.439Z,29.45
2022-08-31T16:10:43.022Z,29.40
2022-08-31T16:13:10.700Z,29.37
2022-08-31T16:15:38.836Z,29.33
2022-08-31T16:18:07.235Z,29.40
2022-08-31T16:20:34.830Z,29.38
2022-08-31T16:23:03.134Z,29.33
2022-08-31T16:25:47.488Z,29.31
2022-08-31T16:28:21.048Z,29.24
2022-08-31T16:30:51.210Z,29.26
2022-08-31T16:33:19.689Z,29.13
2022-08-31T16:35:47.687Z,28.95
2022-08-31T16:38:15.577Z,28.67
2022-08-31T16:40:43.935Z,28.49
2022-08-31T16:43:11.289Z,28.25
2022-08-31T16:45:40.709Z,28.06
2022-08-31T16:48:29.306Z,27.93
2022-08-31T16:51:02.448Z,27.76
2022-08-31T16:53:31.005Z,27.69
2022-08-31T16:56:00.072Z,27.50
2022-08-31T16:58:50.718Z,27.49
2022-08-31T17:01:26.526Z,27.44
2022-08-31T17:04:00.321Z,27.30
2022-08-31T17:06:33.969Z,27.30
2022-08-31T17:09:05.550Z,27.27
2022-08-31T17:11:37.868Z,27.22
2022-08-31T17:14:07.801Z,27.17
2022-08-31T17:16:38.648Z,27.23
2022-08-31T17:19:10.792Z,27.15
2022-08-31T17:21:50.541Z,27.15
2022-08-31T17:24:26.890Z,27.13
2022-08-31T17:26:59.766Z,27.02
2022-08-31T17:29:34.145Z,27.05
2022-08-31T17:32:13.670Z,27.15
2022-08-31T17:34:43.183Z,27.32
2022-08-31T17:37:15.280Z,27.30
2022-08-31T17:39:44.645Z,27.28
2022-08-31T17:42:15.395Z,27.26
2022-08-31T17:44:45.021Z,27.08
2022-08-31T17:47:12.397Z,26.93
2022-08-31T17:49:44.466Z,26.72
2022-08-31T17:52:13.660Z,26.42
2022-08-31T17:54:43.206Z,26.20
2022-08-31T17:57:13.991Z,25.85
2022-08-31T17:59:44.379Z,25.52
2022-08-31T18:02:21.240Z,25.28
2022-08-31T18:04:49.017Z,24.97
2022-08-31T18:07:16.647Z,24.68
2022-08-31T18:09:48.084Z,24.62
2022-08-31T18:12:18.148Z,24.39
2022-08-31T18:14:45.266Z,24.52
2022-08-31T18:17:16.379Z,24.40
2022-08-31T18:19:44.808Z,24.28
2022-08-31T18:22:14.419Z,24.21
2022-08-31T18:24:42.707Z,24.11
2022-08-31T18:27:15.492Z,24.11
2022-08-31T18:29:44.385Z,24.08
2022-08-31T18:32:12.388Z,23.95
2022-08-31T18:34:44.930Z,23.84
2022-08-31T18:37:13.073Z,23.86
2022-08-31T18:40:07.692Z,23.83
2022-08-31T18:42:56.860Z,23.71
2022-08-31T18:45:25.853Z,23.66
2022-08-31T18:50:47.330Z,23.43
2022-08-31T18:53:28.519Z,23.34
2022-08-31T18:56:06.407Z,23.19
2022-08-31T18:58:34.092Z,23.20
2022-08-31T19:01:01.568Z,23.12
2022-08-31T19:03:29.063Z,23.17
2022-08-31T19:05:57.312Z,23.26
2022-08-31T19:08:26.317Z,23.30
2022-08-31T19:10:54.367Z,23.20
2022-08-31T19:13:21.946Z,23.24
2022-08-31T19:15:49.169Z,23.18
2022-08-31T19:18:16.716Z,23.21
2022-08-31T19:20:44.091Z,23.15
2022-08-31T19:23:11.896Z,23.22
2022-08-31T19:25:43.102Z,23.13
2022-08-31T19:28:39.166Z,23.03
2022-08-31T19:31:13.046Z,23.01
2022-08-31T19:33:57.403Z,23.00
2022-08-31T19:36:40.449Z,22.97
2022-08-31T19:39:10.790Z,23.00
2022-08-31T19:41:49.256Z,22.99
2022-08-31T19:44:17.641Z,22.92
2022-08-31T19:46:54.091Z,22.88
2022-08-31T19:49:21.729Z,22.93
2022-08-31T19:51:56.661Z,22.94
2022-08-31T19:54:31.304Z,23.01
2022-08-31T19:57:02.161Z,23.04
2022-08-31T19:59:30.030Z,23.03
2022-08-31T20:01:59.459Z,23.03
2022-08-31T20:04:28.819Z,23.06
2022-08-31T20:06:57.302Z,22.98
2022-08-31T20:09:25.535Z,22.92
2022-08-31T20:11:54.676Z,22.84
2022-08-31T20:14:23.466Z,22.89
2022-08-31T20:16:52.289Z,22.91
2022-08-31T20:19:25.373Z,22.80
2022-08-31T20:21:55.193Z,22.82
2022-08-31T20:24:28.118Z,22.75
2022-08-31T20:26:59.933Z,22.76
2022-08-31T20:29:27.911Z,22.74
2022-08-31T20:31:56.244Z,22.74
2022-08-31T20:34:28.211Z,22.77
2022-08-31T20:37:00.927Z,22.77
2022-08-31T20:39:30.980Z,22.71
2022-08-31T20:42:00.204Z,22.70
2022-08-31T20:44:35.641Z,22.72
2022-08-31T20:47:27.309Z,22.70
2022-08-31T20:50:01.003Z,22.67
2022-08-31T20:52:32.610Z,22.60
2022-08-31T20:55:02.585Z,22.62
2022-08-31T20:57:34.030Z,22.55
2022-08-31T21:00:05.600Z,22.61
2022-08-31T21:02:35.344Z,22.54
2022-08-31T21:05:33.947Z,22.61
2022-08-31T21:07:57.494Z,22.62
2022-08-31T21:10:37.027Z,22.61
2022-08-31T21:13:07.419Z,22.53
2022-08-31T21:15:34.774Z,22.55
2022-08-31T21:18:02.216Z,22.51
2022-08-31T21:20:29.408Z,22.42
2022-08-31T21:22:56.617Z,22.45
2022-08-31T21:25:23.889Z,22.44
2022-08-31T21:27:53.018Z,22.42
2022-08-31T21:30:20.405Z,22.45
2022-08-31T21:32:56.121Z,22.42
2022-08-31T21:35:27.559Z,22.38
2022-08-31T21:37:57.029Z,22.41
2022-08-31T21:40:24.705Z,22.37
2022-08-31T21:42:51.713Z,22.31
2022-08-31T21:45:19.111Z,22.32
2022-08-31T21:47:46.218Z,22.22
2022-08-31T21:50:13.703Z,22.26
2022-08-31T21:52:41.107Z,22.19
2022-08-31T21:55:13.683Z,22.13
2022-08-31T21:57:41.921Z,22.08
2022-08-31T22:00:15.958Z,22.04
2022-08-31T22:02:47.418Z,22.03
2022-08-31T22:05:15.282Z,21.93
2022-08-31T22:07:43.232Z,21.97
2022-08-31T22:10:12.230Z,21.92
2022-08-31T22:12:39.475Z,21.88
2022-08-31T22:15:10.449Z,21.85
2022-08-31T22:18:02.114Z,21.85
2022-08-31T22:20:27.865Z,21.92
2022-08-31T22:22:55.255Z,21.80
2022-08-31T22:25:22.651Z,21.71
2022-08-31T22:27:51.441Z,21.65
2022-08-31T22:30:20.331Z,21.49
2022-08-31T22:32:48.032Z,21.39
2022-08-31T22:35:18.557Z,21.50
2022-08-31T22:37:46.321Z,21.44
2022-08-31T22:40:21.894Z,21.39
2022-08-31T22:42:54.260Z,21.34
2022-08-31T22:45:23.911Z,21.30
2022-08-31T22:47:51.969Z,21.33
2022-08-31T22:50:20.413Z,21.27
2022-08-31T22:52:48.315Z,21.20
2022-08-31T22:55:15.815Z,21.14
2022-08-31T22:57:42.948Z,21.22
2022-08-31T23:00:14.725Z,21.28
2022-08-31T23:02:45.379Z,21.26
2022-08-31T23:05:15.260Z,21.21
2022-08-31T23:07:43.075Z,21.29
2022-08-31T23:10:16.520Z,21.24
2022-08-31T23:12:46.887Z,21.19
2022-08-31T23:15:18.037Z,21.20
2022-08-31T23:17:51.586Z,21.22
2022-08-31T23:20:24.534Z,21.17
2022-08-31T23:22:55.028Z,21.19
2022-08-31T23:25:24.110Z,21.19
2022-08-31T23:27:52.320Z,21.12
2022-08-31T23:30:21.495Z,21.14
2022-08-31T23:32:53.524Z,21.09
2022-08-31T23:35:22.054Z,21.12
2022-08-31T23:37:50.400Z,21.13
2022-08-31T23:40:18.925Z,21.11
2022-08-31T23:42:47.248Z,21.13
2022-08-31T23:45:16.356Z,21.12
2022-08-31T23:47:43.464Z,21.17
2022-08-31T23:50:11.112Z,21.30
2022-08-31T23:52:41.716Z,21.52
2022-08-31T23:55:11.078Z,21.65
2022-08-31T23:57:39.602Z,21.64
